createdAt,value
2023-04-09T00:00:45.513Z,6.70
2023-04-09T00:03:12.831Z,7.53
2023-04-09T00:05:42.829Z,6.53
2023-04-09T00:08:09.968Z,6.63
2023-04-09T00:10:37.154Z,7.50
2023-04-09T00:13:04.352Z,7.07
2023-04-09T00:15:32.055Z,7.57
2023-04-09T00:18:00.004Z,8.02
2023-04-09T00:20:27.297Z,7.22
2023-04-09T00:22:55.577Z,7.75
2023-04-09T00:25:22.765Z,6.57
2023-04-09T00:27:49.922Z,7.07
2023-04-09T00:30:17.280Z,7.28
2023-04-09T00:32:44.438Z,6.97
2023-04-09T00:35:11.879Z,7.05
2023-04-09T00:37:39.010Z,7.30
2023-04-09T00:40:06.596Z,7.18
2023-04-09T00:42:34.230Z,7.18
2023-04-09T00:45:01.596Z,7.95
2023-04-09T00:47:29.837Z,7.22
2023-04-09T00:49:57.222Z,7.53
2023-04-09T00:52:25.328Z,7.60
2023-04-09T00:54:52.935Z,8.27
2023-04-09T00:57:20.620Z,7.68
2023-04-09T00:59:47.820Z,8.50
2023-04-09T01:02:15.052Z,8.00
2023-04-09T01:04:43.757Z,7.63
2023-04-09T01:07:25.895Z,7.72
2023-04-09T01:10:05.988Z,8.00
2023-04-09T01:12:37.632Z,7.88
2023-04-09T01:15:11.697Z,7.80
2023-04-09T01:17:39.197Z,8.13
2023-04-09T01:20:06.680Z,8.25
2023-04-09T01:22:33.881Z,8.23
2023-04-09T01:25:21.293Z,8.57
2023-04-09T01:27:56.232Z,8.65
2023-04-09T01:32:50.861Z,8.93
2023-04-09T01:35:19.159Z,9.00
2023-04-09T01:37:47.035Z,9.32
2023-04-09T01:40:14.261Z,9.15
2023-04-09T01:42:41.933Z,9.63
2023-04-09T01:45:11.271Z,8.70
2023-04-09T01:47:38.954Z,9.38
2023-04-09T01:50:06.486Z,8.40
2023-04-09T01:52:33.840Z,8.82
2023-04-09T01:55:01.041Z,8.98
2023-04-09T01:57:28.217Z,9.25
2023-04-09T01:59:55.647Z,8.35
2023-04-09T02:02:28.808Z,8.00
2023-04-09T02:04:58.647Z,8.85
2023-04-09T02:07:29.600Z,8.93
2023-04-09T02:09:57.604Z,8.15
2023-04-09T02:12:25.886Z,9.60
2023-04-09T02:14:54.750Z,9.73
2023-04-09T02:17:22.113Z,9.13
2023-04-09T02:19:49.377Z,9.20
2023-04-09T02:22:17.267Z,9.13
2023-04-09T02:24:44.676Z,7.97
2023-04-09T02:27:11.794Z,9.05
2023-04-09T02:29:40.327Z,8.55
2023-04-09T02:32:07.629Z,8.05
2023-04-09T02:34:34.804Z,9.52
2023-04-09T02:37:02.041Z,8.65
2023-04-09T02:39:29.227Z,8.77
2023-04-09T02:41:57.860Z,9.00
2023-04-09T02:44:25.099Z,9.20
2023-04-09T02:46:52.782Z,9.05
2023-04-09T02:49:19.954Z,8.48
2023-04-09T02:51:47.158Z,8.40
2023-04-09T02:54:14.261Z,9.05
2023-04-09T02:56:41.425Z,9.10
2023-04-09T02:59:08.556Z,8.55
2023-04-09T03:01:35.812Z,9.13
2023-04-09T03:04:03.153Z,8.25
2023-04-09T03:06:30.438Z,8.40
2023-04-09T03:08:57.599Z,8.82
2023-04-09T03:11:24.732Z,8.35
2023-04-09T03:13:51.918Z,8.40
2023-04-09T03:16:19.145Z,9.05
2023-04-09T03:18:46.392Z,9.10
2023-04-09T03:21:15.071Z,8.95
2023-04-09T03:23:42.362Z,9.50
2023-04-09T03:26:09.490Z,8.80
2023-04-09T03:28:36.723Z,11.10
2023-04-09T03:31:03.866Z,10.30
2023-04-09T03:33:31.081Z,9.85
2023-04-09T03:35:58.308Z,10.25
2023-04-09T03:38:25.434Z,10.13
2023-04-09T03:40:52.616Z,10.32
2023-04-09T03:43:19.716Z,10.07
2023-04-09T03:45:46.879Z,10.52
2023-04-09T03:48:14.031Z,10.82
2023-04-09T03:50:41.730Z,10.57
2023-04-09T03:53:08.967Z,10.23
2023-04-09T03:55:36.154Z,11.68
2023-04-09T03:58:03.354Z,10.85
2023-04-09T04:00:30.598Z,10.23
2023-04-09T04:02:58.011Z,9.55
2023-04-09T04:05:26.256Z,10.88
2023-04-09T04:07:53.686Z,10.20
2023-04-09T04:10:20.972Z,10.95
2023-04-09T04:12:48.198Z,11.32
2023-04-09T04:15:15.579Z,10.60
2023-04-09T04:17:42.779Z,11.23
2023-04-09T04:20:10.239Z,10.95
2023-04-09T04:22:37.384Z,9.95
2023-04-09T04:25:05.406Z,10.05
2023-04-09T04:27:32.558Z,10.82
2023-04-09T04:30:00.349Z,10.27
2023-04-09T04:32:27.559Z,10.35
2023-04-09T04:34:55.040Z,10.48
2023-04-09T04:37:22.265Z,10.10
2023-04-09T04:39:49.426Z,9.77
2023-04-09T04:42:16.674Z,9.27
2023-04-09T04:44:44.216Z,9.15
2023-04-09T04:47:11.477Z,10.23
2023-04-09T04:49:38.668Z,9.27
2023-04-09T04:52:06.490Z,10.00
2023-04-09T04:54:34.468Z,10.27
2023-04-09T04:57:01.688Z,10.05
2023-04-09T04:59:28.962Z,10.07
2023-04-09T05:01:56.296Z,10.77
2023-04-09T05:04:23.650Z,9.93
2023-04-09T05:06:51.054Z,10.80
2023-04-09T05:09:19.091Z,11.15
2023-04-09T05:11:47.000Z,11.35
2023-04-09T05:14:14.196Z,11.85
2023-04-09T05:16:41.580Z,10.32
2023-04-09T05:19:08.950Z,10.60
2023-04-09T05:21:36.052Z,10.82
2023-04-09T05:24:03.204Z,10.95
2023-04-09T05:26:30.434Z,11.23
2023-04-09T05:28:57.610Z,10.25
2023-04-09T05:31:24.866Z,10.98
2023-04-09T05:33:52.945Z,10.32
2023-04-09T05:36:20.811Z,10.65
2023-04-09T05:38:48.433Z,10.90
2023-04-09T05:41:15.716Z,10.73
2023-04-09T05:43:43.112Z,11.50
2023-04-09T05:46:10.442Z,11.18
2023-04-09T05:48:37.672Z,10.70
2023-04-09T05:51:05.078Z,9.90
2023-04-09T05:53:32.681Z,10.13
2023-04-09T05:55:59.874Z,11.30
2023-04-09T05:58:28.938Z,11.20
2023-04-09T06:00:56.146Z,12.77
2023-04-09T06:03:23.399Z,11.38
2023-04-09T06:05:50.760Z,11.35
2023-04-09T06:08:18.288Z,11.55
2023-04-09T06:10:45.422Z,11.23
2023-04-09T06:13:12.616Z,11.10
2023-04-09T06:15:40.602Z,10.63
2023-04-09T06:18:07.822Z,10.77
2023-04-09T06:20:35.268Z,11.45
2023-04-09T06:23:02.483Z,11.52
2023-04-09T06:25:29.599Z,11.05
2023-04-09T06:27:56.846Z,11.70
2023-04-09T06:30:23.987Z,11.60
2023-04-09T06:32:55.085Z,10.88
2023-04-09T06:35:22.693Z,11.05
2023-04-09T06:37:49.852Z,11.43
2023-04-09T06:40:17.145Z,10.90
2023-04-09T06:42:44.339Z,10.18
2023-04-09T06:45:11.587Z,9.18
2023-04-09T06:47:38.759Z,9.38
2023-04-09T06:50:06.171Z,9.10
2023-04-09T06:52:33.479Z,7.93
2023-04-09T06:55:00.865Z,8.00
2023-04-09T06:57:28.056Z,7.20
2023-04-09T06:59:55.736Z,8.40
2023-04-09T07:02:23.182Z,8.98
2023-04-09T07:04:50.576Z,7.70
2023-04-09T07:07:18.577Z,7.45
2023-04-09T07:09:45.901Z,7.18
2023-04-09T07:12:13.097Z,8.07
2023-04-09T07:14:40.356Z,7.63
2023-04-09T07:17:07.491Z,8.75
2023-04-09T07:19:34.643Z,8.50
2023-04-09T07:22:01.824Z,8.43
2023-04-09T07:24:29.011Z,7.82
2023-04-09T07:26:56.321Z,8.20
2023-04-09T07:29:23.520Z,8.30
2023-04-09T07:31:50.901Z,9.10
2023-04-09T07:34:18.205Z,8.73
2023-04-09T07:36:45.398Z,8.73
2023-04-09T07:39:12.532Z,9.10
2023-04-09T07:41:39.720Z,8.25
2023-04-09T07:44:07.513Z,8.20
2023-04-09T07:46:34.716Z,8.35
2023-04-09T07:49:01.920Z,8.60
2023-04-09T07:51:29.049Z,9.20
2023-04-09T07:53:56.220Z,9.13
2023-04-09T07:56:23.338Z,8.77
2023-04-09T07:58:50.903Z,7.63
2023-04-09T08:01:18.239Z,7.50
2023-04-09T08:03:45.555Z,7.55
2023-04-09T08:06:12.845Z,7.40
2023-04-09T08:08:40.005Z,7.75
2023-04-09T08:11:07.238Z,7.03
2023-04-09T08:13:34.431Z,7.85
2023-04-09T08:16:02.324Z,7.43
2023-04-09T08:18:29.599Z,6.97
2023-04-09T08:20:57.385Z,7.15
2023-04-09T08:23:24.550Z,7.13
2023-04-09T08:25:51.743Z,7.10
2023-04-09T08:28:19.089Z,6.45
2023-04-09T08:30:47.717Z,8.15
2023-04-09T08:33:15.046Z,6.50
2023-04-09T08:35:42.600Z,6.70
2023-04-09T08:38:10.000Z,6.95
2023-04-09T08:40:37.376Z,7.90
2023-04-09T08:43:07.995Z,7.68
2023-04-09T08:45:35.482Z,8.30
2023-04-09T08:48:03.947Z,7.90
2023-04-09T08:50:33.851Z,8.60
2023-04-09T08:53:03.093Z,8.45
2023-04-09T08:55:31.258Z,7.75
2023-04-09T08:57:58.520Z,8.85
2023-04-09T09:00:25.677Z,9.02
2023-04-09T09:03:09.276Z,8.93
2023-04-09T09:05:40.739Z,9.25
2023-04-09T09:08:11.534Z,9.60
2023-04-09T09:10:38.884Z,10.95
2023-04-09T09:13:19.106Z,10.07
2023-04-09T09:15:49.858Z,10.25
2023-04-09T09:18:18.357Z,10.32
2023-04-09T09:20:45.964Z,11.20
2023-04-09T09:23:13.205Z,10.65
2023-04-09T09:25:40.897Z,10.38
2023-04-09T09:28:09.076Z,9.93
2023-04-09T09:30:37.517Z,10.38
2023-04-09T09:33:11.657Z,10.18
2023-04-09T09:35:51.893Z,10.75
2023-04-09T09:38:19.624Z,10.43
2023-04-09T09:40:47.339Z,9.95
2023-04-09T09:43:14.999Z,9.40
2023-04-09T09:45:43.495Z,9.73
2023-04-09T09:48:14.395Z,9.70
2023-04-09T09:50:42.111Z,9.10
2023-04-09T09:53:11.104Z,9.77
2023-04-09T09:55:42.488Z,9.00
2023-04-09T09:58:12.438Z,9.45
2023-04-09T10:00:41.038Z,9.82
2023-04-09T10:03:11.663Z,9.65
2023-04-09T10:05:39.692Z,8.40
2023-04-09T10:08:07.875Z,9.02
2023-04-09T10:10:35.282Z,9.98
2023-04-09T10:13:02.770Z,10.38
2023-04-09T10:15:31.115Z,9.52
2023-04-09T10:17:58.672Z,10.20
2023-04-09T10:20:33.329Z,10.15
2023-04-09T10:23:04.062Z,9.48
2023-04-09T10:25:31.211Z,9.43
2023-04-09T10:28:16.151Z,10.23
2023-04-09T10:30:43.813Z,10.18
2023-04-09T10:33:11.395Z,9.82
2023-04-09T10:35:38.675Z,10.27
2023-04-09T10:38:09.712Z,9.95
2023-04-09T10:40:49.928Z,9.93
2023-04-09T10:43:23.523Z,10.73
2023-04-09T10:45:53.567Z,10.40
2023-04-09T10:48:26.610Z,11.52
2023-04-09T10:50:53.774Z,12.18
2023-04-09T10:53:24.798Z,11.73
2023-04-09T10:55:52.823Z,11.43
2023-04-09T10:58:20.330Z,11.85
2023-04-09T11:00:48.597Z,10.82
2023-04-09T11:03:24.919Z,11.60
2023-04-09T11:05:53.468Z,12.45
2023-04-09T11:08:22.155Z,11.05
2023-04-09T11:10:52.001Z,11.00
2023-04-09T11:13:20.939Z,11.13
2023-04-09T11:15:48.168Z,11.35
2023-04-09T11:18:16.117Z,11.07
2023-04-09T11:20:43.676Z,11.13
2023-04-09T11:23:11.385Z,10.90
2023-04-09T11:25:38.548Z,11.27
2023-04-09T11:28:08.189Z,10.82
2023-04-09T11:30:35.853Z,10.82
2023-04-09T11:33:03.201Z,10.40
2023-04-09T11:35:30.485Z,10.07
2023-04-09T11:37:57.775Z,10.43
2023-04-09T11:40:25.989Z,11.40
2023-04-09T11:42:54.615Z,10.18
2023-04-09T11:45:24.242Z,10.32
2023-04-09T11:47:51.926Z,9.52
2023-04-09T11:50:19.954Z,10.93
2023-04-09T11:52:47.548Z,11.48
2023-04-09T11:55:23.631Z,10.80
2023-04-09T11:57:51.922Z,10.35
2023-04-09T12:00:20.339Z,10.60
2023-04-09T12:02:50.571Z,9.68
2023-04-09T12:05:29.122Z,10.45
2023-04-09T12:08:04.940Z,10.57
2023-04-09T12:10:34.324Z,10.32
2023-04-09T12:13:06.426Z,10.27
2023-04-09T12:15:34.642Z,10.88
2023-04-09T12:18:02.214Z,10.93
2023-04-09T12:20:36.679Z,11.02
2023-04-09T12:23:04.767Z,10.57
2023-04-09T12:25:36.828Z,10.68
2023-04-09T12:28:04.961Z,11.73
2023-04-09T12:30:32.496Z,11.10
2023-04-09T12:33:00.041Z,10.48
2023-04-09T12:35:27.303Z,10.65
2023-04-09T12:37:54.603Z,12.05
2023-04-09T12:40:22.337Z,10.95
2023-04-09T12:42:49.496Z,10.55
2023-04-09T12:45:17.399Z,11.25
2023-04-09T12:47:44.982Z,11.95
2023-04-09T12:50:12.861Z,10.95
2023-04-09T12:52:40.199Z,11.32
2023-04-09T12:55:07.830Z,11.25
2023-04-09T12:57:35.213Z,11.15
2023-04-09T13:00:02.360Z,10.68
2023-04-09T13:02:30.312Z,10.02
2023-04-09T13:04:57.654Z,11.27
2023-04-09T13:07:26.113Z,10.85
2023-04-09T13:09:53.389Z,11.00
2023-04-09T13:12:21.586Z,10.98
2023-04-09T13:14:49.123Z,11.00
2023-04-09T13:17:16.596Z,10.52
2023-04-09T13:19:43.803Z,10.90
2023-04-09T13:22:11.112Z,11.02
2023-04-09T13:24:41.404Z,10.70
2023-04-09T13:27:11.579Z,9.63
2023-04-09T13:29:38.931Z,9.70
2023-04-09T13:32:10.844Z,9.25
2023-04-09T13:34:39.058Z,10.65
2023-04-09T13:37:06.306Z,10.38
2023-04-09T13:39:33.605Z,9.60
2023-04-09T13:42:07.284Z,10.38
2023-04-09T13:44:37.206Z,10.90
2023-04-09T13:47:04.320Z,10.27
2023-04-09T13:49:31.473Z,9.60
2023-04-09T13:51:59.461Z,9.65
2023-04-09T13:54:27.180Z,9.18
2023-04-09T13:56:54.308Z,9.00
2023-04-09T13:59:21.497Z,10.00
2023-04-09T14:01:48.921Z,9.20
2023-04-09T14:04:16.678Z,9.70
2023-04-09T14:06:44.044Z,9.93
2023-04-09T14:09:11.435Z,8.98
2023-04-09T14:11:38.634Z,9.63
2023-04-09T14:14:05.882Z,9.23
2023-04-09T14:16:33.335Z,8.50
2023-04-09T14:19:00.837Z,8.88
2023-04-09T14:21:29.185Z,7.90
2023-04-09T14:23:56.672Z,8.63
2023-04-09T14:26:24.484Z,8.60
2023-04-09T14:28:52.218Z,9.50
2023-04-09T14:31:22.499Z,9.73
2023-04-09T14:33:49.803Z,9.45
2023-04-09T14:36:17.125Z,9.52
2023-04-09T14:38:44.442Z,10.05
2023-04-09T14:41:11.622Z,11.63
2023-04-09T14:43:39.680Z,7.53
2023-04-09T14:46:11.534Z,8.02
2023-04-09T14:48:39.749Z,7.60
2023-04-09T14:51:07.086Z,8.60
2023-04-09T14:53:34.217Z,9.43
2023-04-09T14:56:01.396Z,8.70
2023-04-09T14:58:28.586Z,9.23
2023-04-09T15:00:56.663Z,9.32
2023-04-09T15:03:24.022Z,7.65
2023-04-09T15:05:51.627Z,7.50
2023-04-09T15:08:18.782Z,8.00
2023-04-09T15:10:45.919Z,7.57
2023-04-09T15:13:13.029Z,8.13
2023-04-09T15:15:46.372Z,7.60
2023-04-09T15:18:13.516Z,7.03
2023-04-09T15:20:41.597Z,7.57
2023-04-09T15:23:08.788Z,7.60
2023-04-09T15:25:36.339Z,7.75
2023-04-09T15:28:03.660Z,7.80
2023-04-09T15:30:30.984Z,7.25
2023-04-09T15:32:58.250Z,6.95
2023-04-09T15:35:29.159Z,6.60
2023-04-09T15:37:57.352Z,6.63
2023-04-09T15:40:24.624Z,6.60
2023-04-09T15:42:51.879Z,6.97
2023-04-09T15:45:19.060Z,6.75
2023-04-09T15:47:46.448Z,7.15
2023-04-09T15:50:14.087Z,7.10
2023-04-09T15:52:41.245Z,6.40
2023-04-09T15:55:08.798Z,7.05
2023-04-09T15:57:35.925Z,7.55
2023-04-09T16:00:03.298Z,7.03
2023-04-09T16:02:30.479Z,7.90
2023-04-09T16:04:57.646Z,7.82
2023-04-09T16:07:24.832Z,7.90
2023-04-09T16:09:52.084Z,7.72
2023-04-09T16:12:19.216Z,7.43
2023-04-09T16:14:46.644Z,7.28
2023-04-09T16:17:13.811Z,5.90
2023-04-09T16:19:41.735Z,6.30
2023-04-09T16:22:09.059Z,6.18
2023-04-09T16:24:36.394Z,6.70
2023-04-09T16:27:03.666Z,6.50
2023-04-09T16:29:30.843Z,6.18
2023-04-09T16:31:58.160Z,6.40
2023-04-09T16:34:25.660Z,5.90
2023-04-09T16:36:52.934Z,6.20
2023-04-09T16:39:20.300Z,5.93
2023-04-09T16:41:47.488Z,6.07
2023-04-09T16:44:14.683Z,5.72
2023-04-09T16:46:42.838Z,6.10
2023-04-09T16:49:10.037Z,6.22
2023-04-09T16:51:38.024Z,6.65
2023-04-09T16:54:05.323Z,6.35
2023-04-09T16:56:32.932Z,6.32
2023-04-09T16:59:00.250Z,6.07
2023-04-09T17:01:27.886Z,6.47
2023-04-09T17:03:56.449Z,6.43
2023-04-09T17:06:23.663Z,6.53
2023-04-09T17:08:50.971Z,6.22
2023-04-09T17:11:18.451Z,6.32
2023-04-09T17:13:45.725Z,7.75
2023-04-09T17:16:14.222Z,6.13
2023-04-09T17:18:41.484Z,5.70
2023-04-09T17:21:08.663Z,6.72
2023-04-09T17:23:36.045Z,5.75
2023-04-09T17:26:03.176Z,5.93
2023-04-09T17:28:30.328Z,5.57
2023-04-09T17:30:57.483Z,5.50
2023-04-09T17:33:24.741Z,5.63
2023-04-09T17:35:52.893Z,5.20
2023-04-09T17:38:25.030Z,5.35
2023-04-09T17:40:53.807Z,5.22
2023-04-09T17:43:20.957Z,5.43
2023-04-09T17:45:49.221Z,5.40
2023-04-09T17:48:16.600Z,5.53
2023-04-09T17:50:43.816Z,5.63
2023-04-09T17:53:11.557Z,6.00
2023-04-09T17:55:38.758Z,5.07
2023-04-09T17:58:05.927Z,5.03
2023-04-09T18:00:34.365Z,5.60
2023-04-09T18:03:01.700Z,5.32
2023-04-09T18:05:29.252Z,5.55
2023-04-09T18:07:56.778Z,5.28
2023-04-09T18:10:24.055Z,5.60
2023-04-09T18:12:51.343Z,6.05
2023-04-09T18:15:19.201Z,6.28
2023-04-09T18:17:46.710Z,5.10
2023-04-09T18:20:15.448Z,6.35
2023-04-09T18:22:42.931Z,6.55
2023-04-09T18:25:10.379Z,6.07
2023-04-09T18:27:37.580Z,6.40
2023-04-09T18:30:04.968Z,7.03
2023-04-09T18:32:32.382Z,6.28
2023-04-09T18:34:59.604Z,5.97
2023-04-09T18:37:27.762Z,7.03
2023-04-09T18:39:55.194Z,6.90
2023-04-09T18:42:22.373Z,7.05
2023-04-09T18:44:49.558Z,5.85
2023-04-09T18:47:16.676Z,5.97
2023-04-09T18:49:43.835Z,6.13
2023-04-09T18:52:11.050Z,6.97
2023-04-09T18:54:38.920Z,6.70
2023-04-09T18:57:06.454Z,6.57
2023-04-09T18:59:34.959Z,7.18
2023-04-09T19:02:05.856Z,7.05
2023-04-09T19:04:39.826Z,7.38
2023-04-09T19:07:07.194Z,6.93
2023-04-09T19:09:34.653Z,6.90
2023-04-09T19:12:01.979Z,7.47
2023-04-09T19:14:29.276Z,6.40
2023-04-09T19:16:57.107Z,7.28
2023-04-09T19:19:24.278Z,6.30
2023-04-09T19:21:51.414Z,6.95
2023-04-09T19:24:18.527Z,7.07
2023-04-09T19:26:45.680Z,7.50
2023-04-09T19:29:12.803Z,7.93
2023-04-09T19:31:41.394Z,7.78
2023-04-09T19:34:10.697Z,7.95
2023-04-09T19:36:37.904Z,8.70
2023-04-09T19:39:05.940Z,9.00
2023-04-09T19:41:33.134Z,8.57
2023-04-09T19:44:01.437Z,8.25
2023-04-09T19:46:28.620Z,7.85
2023-04-09T19:48:56.695Z,7.35
2023-04-09T19:51:23.841Z,7.78
2023-04-09T19:53:51.037Z,8.15
2023-04-09T19:56:18.194Z,8.02
2023-04-09T19:58:45.566Z,8.32
2023-04-09T20:01:12.798Z,8.95
2023-04-09T20:03:40.030Z,8.85
2023-04-09T20:06:09.278Z,9.10
2023-04-09T20:08:37.722Z,9.95
2023-04-09T20:11:05.015Z,9.18
2023-04-09T20:13:32.150Z,9.45
2023-04-09T20:15:59.340Z,8.88
2023-04-09T20:18:26.561Z,10.32
2023-04-09T20:20:53.934Z,9.73
2023-04-09T20:23:21.111Z,9.52
2023-04-09T20:25:52.722Z,8.95
2023-04-09T20:28:19.885Z,9.88
2023-04-09T20:30:47.064Z,9.70
2023-04-09T20:33:14.236Z,10.05
2023-04-09T20:35:41.393Z,9.23
2023-04-09T20:38:08.534Z,9.10
2023-04-09T20:40:38.530Z,9.75
2023-04-09T20:43:05.795Z,10.50
2023-04-09T20:45:32.965Z,10.63
2023-04-09T20:48:01.107Z,10.23
2023-04-09T20:50:28.832Z,10.68
2023-04-09T20:52:56.061Z,11.45
2023-04-09T20:55:23.203Z,10.93
2023-04-09T20:57:50.332Z,11.35
2023-04-09T21:00:17.925Z,11.27
2023-04-09T21:02:45.135Z,10.48
2023-04-09T21:05:23.822Z,11.90
2023-04-09T21:07:52.311Z,12.18
2023-04-09T21:10:19.616Z,12.30
2023-04-09T21:12:46.737Z,11.77
2023-04-09T21:15:13.894Z,11.70
2023-04-09T21:17:41.100Z,11.43
2023-04-09T21:20:08.857Z,11.13
2023-04-09T21:22:36.228Z,11.05
2023-04-09T21:25:03.676Z,11.30
2023-04-09T21:27:31.274Z,10.73
2023-04-09T21:29:58.954Z,10.70
2023-04-09T21:32:26.333Z,10.40
2023-04-09T21:34:54.343Z,10.23
2023-04-09T21:37:21.920Z,10.65
2023-04-09T21:39:49.130Z,9.93
2023-04-09T21:42:16.311Z,10.00
2023-04-09T21:44:43.517Z,10.40
2023-04-09T21:47:12.122Z,10.18
2023-04-09T21:49:40.619Z,10.23
2023-04-09T21:52:14.356Z,10.68
2023-04-09T21:54:42.431Z,10.93
2023-04-09T21:57:09.629Z,11.05
2023-04-09T21:59:36.834Z,10.23
2023-04-09T22:02:04.896Z,9.45
2023-04-09T22:04:32.224Z,10.05
2023-04-09T22:06:59.388Z,10.40
2023-04-09T22:09:26.583Z,9.85
2023-04-09T22:11:53.784Z,10.70
2023-04-09T22:14:22.477Z,10.75
2023-04-09T22:16:49.658Z,10.30
2023-04-09T22:19:16.816Z,10.75
2023-04-09T22:21:43.966Z,11.15
2023-04-09T22:24:11.274Z,10.65
2023-04-09T22:26:40.823Z,10.30
2023-04-09T22:29:08.271Z,10.63
2023-04-09T22:31:35.475Z,11.07
2023-04-09T22:34:17.194Z,10.20
2023-04-09T22:36:46.891Z,9.25
2023-04-09T22:39:14.154Z,10.35
2023-04-09T22:41:41.583Z,10.23
2023-04-09T22:44:09.629Z,10.35
2023-04-09T22:46:37.227Z,9.90
2023-04-09T22:49:05.787Z,10.10
2023-04-09T22:51:34.680Z,10.35
2023-04-09T22:54:02.282Z,10.48
2023-04-09T22:56:30.272Z,10.65
2023-04-09T22:58:57.451Z,10.73
2023-04-09T23:01:24.647Z,10.43
2023-04-09T23:03:51.932Z,10.75
2023-04-09T23:06:19.119Z,10.57
2023-04-09T23:08:46.563Z,11.82
2023-04-09T23:11:13.726Z,11.63
2023-04-09T23:13:40.888Z,10.27
2023-04-09T23:16:08.977Z,11.48
2023-04-09T23:18:36.490Z,11.68
2023-04-09T23:21:10.652Z,11.25
2023-04-09T23:23:38.172Z,11.40
2023-04-09T23:26:05.946Z,11.52
2023-04-09T23:28:33.260Z,10.25
2023-04-09T23:31:00.624Z,10.25
2023-04-09T23:33:27.907Z,11.25
2023-04-09T23:35:55.212Z,10.55
2023-04-09T23:38:22.405Z,10.50
2023-04-09T23:40:50.062Z,10.32
2023-04-09T23:43:17.290Z,10.00
2023-04-09T23:45:44.677Z,10.32
2023-04-09T23:48:12.745Z,9.95
2023-04-09T23:50:42.822Z,10.07
2023-04-09T23:53:10.953Z,9.73
2023-04-09T23:55:38.487Z,9.63
2023-04-09T23:58:05.880Z,9.75
